sensor_id;sensor_type;location;lat;lon;timestamp;temperature;humidity
47618;DHT22;33336;36.728;-4.414;2023-05-07T00:04:12;24.80;88.50
47618;DHT22;33336;36.728;-4.414;2023-05-07T00:09:16;24.60;89.10
47618;DHT22;33336;36.728;-4.414;2023-05-07T00:14:20;24.40;89.50
47618;DHT22;33336;36.728;-4.414;2023-05-07T00:19:25;24.20;89.80
47618;DHT22;33336;36.728;-4.414;2023-05-07T00:24:27;24.30;89.80
47618;DHT22;33336;36.728;-4.414;2023-05-07T00:29:33;24.20;89.70
47618;DHT22;33336;36.728;-4.414;2023-05-07T00:34:36;24.20;89.60
47618;DHT22;33336;36.728;-4.414;2023-05-07T00:39:39;24.40;89.30
47618;DHT22;33336;36.728;-4.414;2023-05-07T00:44:44;24.20;89.70
47618;DHT22;33336;36.728;-4.414;2023-05-07T00:49:48;24.20;89.90
47618;DHT22;33336;36.728;-4.414;2023-05-07T00:54:51;24.20;90.20
47618;DHT22;33336;36.728;-4.414;2023-05-07T00:59:57;24.20;90.10
47618;DHT22;33336;36.728;-4.414;2023-05-07T01:05:00;24.00;90.50
47618;DHT22;33336;36.728;-4.414;2023-05-07T01:10:07;24.00;90.50
47618;DHT22;33336;36.728;-4.414;2023-05-07T01:15:12;24.10;90.60
47618;DHT22;33336;36.728;-4.414;2023-05-07T01:20:18;23.70;91.00
47618;DHT22;33336;36.728;-4.414;2023-05-07T01:25:22;23.60;91.20
47618;DHT22;33336;36.728;-4.414;2023-05-07T01:30:27;23.80;91.10
47618;DHT22;33336;36.728;-4.414;2023-05-07T01:35:34;23.70;91.20
47618;DHT22;33336;36.728;-4.414;2023-05-07T01:40:41;23.60;91.40
47618;DHT22;33336;36.728;-4.414;2023-05-07T01:45:45;23.60;91.50
47618;DHT22;33336;36.728;-4.414;2023-05-07T01:50:51;23.80;91.30
47618;DHT22;33336;36.728;-4.414;2023-05-07T01:55:56;23.60;91.60
47618;DHT22;33336;36.728;-4.414;2023-05-07T02:01:00;23.60;91.70
47618;DHT22;33336;36.728;-4.414;2023-05-07T02:06:03;23.40;91.90
47618;DHT22;33336;36.728;-4.414;2023-05-07T02:11:08;23.40;92.10
47618;DHT22;33336;36.728;-4.414;2023-05-07T02:16:11;23.60;92.00
47618;DHT22;33336;36.728;-4.414;2023-05-07T02:21:16;23.40;92.20
47618;DHT22;33336;36.728;-4.414;2023-05-07T02:26:20;23.40;92.20
47618;DHT22;33336;36.728;-4.414;2023-05-07T02:31:25;23.50;92.30
47618;DHT22;33336;36.728;-4.414;2023-05-07T02:36:28;23.40;92.30
47618;DHT22;33336;36.728;-4.414;2023-05-07T02:41:38;23.30;92.60
47618;DHT22;33336;36.728;-4.414;2023-05-07T02:46:41;23.40;92.50
47618;DHT22;33336;36.728;-4.414;2023-05-07T02:51:45;23.30;92.60
47618;DHT22;33336;36.728;-4.414;2023-05-07T02:56:49;23.50;92.50
47618;DHT22;33336;36.728;-4.414;2023-05-07T03:01:53;23.60;92.20
47618;DHT22;33336;36.728;-4.414;2023-05-07T03:06:56;23.70;92.20
47618;DHT22;33336;36.728;-4.414;2023-05-07T03:12:01;23.40;92.50
47618;DHT22;33336;36.728;-4.414;2023-05-07T03:17:04;23.40;92.50
47618;DHT22;33336;36.728;-4.414;2023-05-07T03:22:06;23.50;92.20
47618;DHT22;33336;36.728;-4.414;2023-05-07T03:27:10;23.40;92.40
47618;DHT22;33336;36.728;-4.414;2023-05-07T03:32:14;23.30;92.50
47618;DHT22;33336;36.728;-4.414;2023-05-07T03:37:17;23.30;92.70
47618;DHT22;33336;36.728;-4.414;2023-05-07T03:42:23;23.30;92.50
47618;DHT22;33336;36.728;-4.414;2023-05-07T03:47:26;23.30;92.40
47618;DHT22;33336;36.728;-4.414;2023-05-07T03:52:30;23.20;92.80
47618;DHT22;33336;36.728;-4.414;2023-05-07T03:57:34;23.10;93.20
47618;DHT22;33336;36.728;-4.414;2023-05-07T04:02:38;22.80;93.60
47618;DHT22;33336;36.728;-4.414;2023-05-07T04:07:41;22.90;93.80
47618;DHT22;33336;36.728;-4.414;2023-05-07T04:12:46;22.90;93.80
47618;DHT22;33336;36.728;-4.414;2023-05-07T04:17:49;23.20;93.50
47618;DHT22;33336;36.728;-4.414;2023-05-07T04:22:54;23.00;93.60
47618;DHT22;33336;36.728;-4.414;2023-05-07T04:27:58;22.70;94.10
47618;DHT22;33336;36.728;-4.414;2023-05-07T04:33:02;22.80;94.10
47618;DHT22;33336;36.728;-4.414;2023-05-07T04:38:05;22.80;94.20
47618;DHT22;33336;36.728;-4.414;2023-05-07T04:43:10;22.70;94.40
47618;DHT22;33336;36.728;-4.414;2023-05-07T04:48:13;22.50;94.90
47618;DHT22;33336;36.728;-4.414;2023-05-07T04:53:19;22.60;95.00
47618;DHT22;33336;36.728;-4.414;2023-05-07T04:58:23;22.60;94.90
47618;DHT22;33336;36.728;-4.414;2023-05-07T05:03:28;22.60;94.90
47618;DHT22;33336;36.728;-4.414;2023-05-07T05:08:31;22.60;94.80
47618;DHT22;33336;36.728;-4.414;2023-05-07T05:13:36;22.40;95.00
47618;DHT22;33336;36.728;-4.414;2023-05-07T05:18:39;22.60;95.10
47618;DHT22;33336;36.728;-4.414;2023-05-07T05:23:42;22.60;95.40
47618;DHT22;33336;36.728;-4.414;2023-05-07T05:28:46;22.40;95.70
47618;DHT22;33336;36.728;-4.414;2023-05-07T05:33:50;22.20;95.90
47618;DHT22;33336;36.728;-4.414;2023-05-07T05:38:53;22.10;96.30
47618;DHT22;33336;36.728;-4.414;2023-05-07T05:43:58;22.30;96.10
47618;DHT22;33336;36.728;-4.414;2023-05-07T05:49:01;22.20;96.20
47618;DHT22;33336;36.728;-4.414;2023-05-07T05:54:05;22.00;96.40
47618;DHT22;33336;36.728;-4.414;2023-05-07T05:59:10;22.20;96.40
47618;DHT22;33336;36.728;-4.414;2023-05-07T06:04:14;21.90;96.80
47618;DHT22;33336;36.728;-4.414;2023-05-07T06:09:16;21.70;97.30
47618;DHT22;33336;36.728;-4.414;2023-05-07T06:14:22;21.70;97.60
47618;DHT22;33336;36.728;-4.414;2023-05-07T06:19:25;22.10;97.10
47618;DHT22;33336;36.728;-4.414;2023-05-07T06:24:30;22.40;96.70
47618;DHT22;33336;36.728;-4.414;2023-05-07T06:29:34;22.20;96.70
47618;DHT22;33336;36.728;-4.414;2023-05-07T06:34:39;22.60;96.30
47618;DHT22;33336;36.728;-4.414;2023-05-07T06:39:42;22.70;96.10
47618;DHT22;33336;36.728;-4.414;2023-05-07T06:44:47;22.30;96.60
47618;DHT22;33336;36.728;-4.414;2023-05-07T06:49:50;22.50;96.50
47618;DHT22;33336;36.728;-4.414;2023-05-07T06:54:54;22.30;96.60
47618;DHT22;33336;36.728;-4.414;2023-05-07T06:59:58;22.10;99.40
47618;DHT22;33336;36.728;-4.414;2023-05-07T07:05:02;22.20;99.90
47618;DHT22;33336;36.728;-4.414;2023-05-07T07:10:05;21.90;99.90
47618;DHT22;33336;36.728;-4.414;2023-05-07T07:15:11;21.80;99.90
47618;DHT22;33336;36.728;-4.414;2023-05-07T07:20:14;22.00;99.90
47618;DHT22;33336;36.728;-4.414;2023-05-07T07:25:18;21.50;99.90
47618;DHT22;33336;36.728;-4.414;2023-05-07T07:30:22;21.70;99.90
47618;DHT22;33336;36.728;-4.414;2023-05-07T07:35:25;22.10;99.90
47618;DHT22;33336;36.728;-4.414;2023-05-07T07:40:28;21.80;99.90
47618;DHT22;33336;36.728;-4.414;2023-05-07T07:45:33;21.90;99.90
47618;DHT22;33336;36.728;-4.414;2023-05-07T07:50:37;22.60;99.90
47618;DHT22;33336;36.728;-4.414;2023-05-07T07:55:40;21.90;99.90
47618;DHT22;33336;36.728;-4.414;2023-05-07T08:00:44;22.00;99.90
47618;DHT22;33336;36.728;-4.414;2023-05-07T08:05:48;22.10;99.90
47618;DHT22;33336;36.728;-4.414;2023-05-07T08:10:52;22.40;99.90
47618;DHT22;33336;36.728;-4.414;2023-05-07T08:15:57;22.40;99.90
47618;DHT22;33336;36.728;-4.414;2023-05-07T08:21:00;22.70;99.90
47618;DHT22;33336;36.728;-4.414;2023-05-07T08:26:04;22.90;99.90
47618;DHT22;33336;36.728;-4.414;2023-05-07T08:31:08;23.20;99.90
47618;DHT22;33336;36.728;-4.414;2023-05-07T08:36:10;23.80;99.90
47618;DHT22;33336;36.728;-4.414;2023-05-07T08:41:14;23.70;99.90
47618;DHT22;33336;36.728;-4.414;2023-05-07T08:46:20;23.60;99.90
47618;DHT22;33336;36.728;-4.414;2023-05-07T08:51:23;23.60;99.90
47618;DHT22;33336;36.728;-4.414;2023-05-07T08:56:26;23.90;99.90
47618;DHT22;33336;36.728;-4.414;2023-05-07T09:01:31;24.20;99.90
47618;DHT22;33336;36.728;-4.414;2023-05-07T09:06:34;24.30;99.90
47618;DHT22;33336;36.728;-4.414;2023-05-07T09:11:39;24.60;99.90
47618;DHT22;33336;36.728;-4.414;2023-05-07T09:16:44;24.60;99.90
47618;DHT22;33336;36.728;-4.414;2023-05-07T09:21:48;24.70;99.90
47618;DHT22;33336;36.728;-4.414;2023-05-07T09:26:51;24.80;99.90
47618;DHT22;33336;36.728;-4.414;2023-05-07T09:31:56;24.80;99.90
47618;DHT22;33336;36.728;-4.414;2023-05-07T09:36:59;24.80;99.90
47618;DHT22;33336;36.728;-4.414;2023-05-07T09:42:03;24.50;99.90
47618;DHT22;33336;36.728;-4.414;2023-05-07T09:47:08;24.60;99.90
47618;DHT22;33336;36.728;-4.414;2023-05-07T09:52:13;24.80;99.90
47618;DHT22;33336;36.728;-4.414;2023-05-07T09:57:17;25.20;99.90
47618;DHT22;33336;36.728;-4.414;2023-05-07T10:02:24;25.60;99.90
47618;DHT22;33336;36.728;-4.414;2023-05-07T10:07:29;25.10;99.90
47618;DHT22;33336;36.728;-4.414;2023-05-07T10:12:32;25.50;99.90
47618;DHT22;33336;36.728;-4.414;2023-05-07T10:17:42;26.00;99.90
47618;DHT22;33336;36.728;-4.414;2023-05-07T10:22:47;25.80;99.90
47618;DHT22;33336;36.728;-4.414;2023-05-07T10:27:51;25.60;99.90
47618;DHT22;33336;36.728;-4.414;2023-05-07T10:32:57;26.00;99.90
47618;DHT22;33336;36.728;-4.414;2023-05-07T10:38:08;26.50;99.90
47618;DHT22;33336;36.728;-4.414;2023-05-07T10:43:12;26.50;99.90
47618;DHT22;33336;36.728;-4.414;2023-05-07T10:48:17;25.30;99.90
47618;DHT22;33336;36.728;-4.414;2023-05-07T10:53:24;26.00;99.90
47618;DHT22;33336;36.728;-4.414;2023-05-07T10:58:28;26.20;99.90
47618;DHT22;33336;36.728;-4.414;2023-05-07T11:03:33;27.00;99.90
47618;DHT22;33336;36.728;-4.414;2023-05-07T11:08:58;25.50;99.90
47618;DHT22;33336;36.728;-4.414;2023-05-07T11:14:01;26.60;99.90
47618;DHT22;33336;36.728;-4.414;2023-05-07T11:19:06;26.90;99.90
47618;DHT22;33336;36.728;-4.414;2023-05-07T11:24:09;27.60;98.70
47618;DHT22;33336;36.728;-4.414;2023-05-07T11:29:15;27.50;99.00
47618;DHT22;33336;36.728;-4.414;2023-05-07T11:34:22;27.20;98.90
47618;DHT22;33336;36.728;-4.414;2023-05-07T11:39:28;27.80;98.00
47618;DHT22;33336;36.728;-4.414;2023-05-07T11:44:42;27.10;98.90
47618;DHT22;33336;36.728;-4.414;2023-05-07T11:49:50;28.00;97.90
47618;DHT22;33336;36.728;-4.414;2023-05-07T11:54:54;28.70;96.50
47618;DHT22;33336;36.728;-4.414;2023-05-07T12:00:00;29.30;95.30
47618;DHT22;33336;36.728;-4.414;2023-05-07T12:05:05;29.40;94.40
47618;DHT22;33336;36.728;-4.414;2023-05-07T12:10:11;29.10;93.10
47618;DHT22;33336;36.728;-4.414;2023-05-07T12:15:16;29.40;92.20
47618;DHT22;33336;36.728;-4.414;2023-05-07T12:20:21;29.60;91.20
47618;DHT22;33336;36.728;-4.414;2023-05-07T12:25:24;29.70;91.50
47618;DHT22;33336;36.728;-4.414;2023-05-07T12:30:27;29.80;90.20
47618;DHT22;33336;36.728;-4.414;2023-05-07T12:35:36;30.50;90.70
47618;DHT22;33336;36.728;-4.414;2023-05-07T12:40:42;30.90;90.20
47618;DHT22;33336;36.728;-4.414;2023-05-07T12:45:46;30.80;85.40
47618;DHT22;33336;36.728;-4.414;2023-05-07T12:50:53;30.30;87.60
47618;DHT22;33336;36.728;-4.414;2023-05-07T12:55:57;30.70;87.20
47618;DHT22;33336;36.728;-4.414;2023-05-07T13:01:03;31.10;86.60
47618;DHT22;33336;36.728;-4.414;2023-05-07T13:06:08;31.30;86.30
47618;DHT22;33336;36.728;-4.414;2023-05-07T13:11:13;30.90;87.60
47618;DHT22;33336;36.728;-4.414;2023-05-07T13:16:16;31.50;86.00
47618;DHT22;33336;36.728;-4.414;2023-05-07T13:21:21;31.90;85.00
47618;DHT22;33336;36.728;-4.414;2023-05-07T13:26:23;32.30;83.60
47618;DHT22;33336;36.728;-4.414;2023-05-07T13:31:27;32.10;81.10
47618;DHT22;33336;36.728;-4.414;2023-05-07T13:36:32;31.70;82.80
47618;DHT22;33336;36.728;-4.414;2023-05-07T13:41:38;32.40;80.40
47618;DHT22;33336;36.728;-4.414;2023-05-07T13:46:41;32.00;80.90
47618;DHT22;33336;36.728;-4.414;2023-05-07T13:51:47;31.40;79.80
47618;DHT22;33336;36.728;-4.414;2023-05-07T13:56:50;32.50;80.00
47618;DHT22;33336;36.728;-4.414;2023-05-07T14:01:53;33.10;79.90
47618;DHT22;33336;36.728;-4.414;2023-05-07T14:06:58;32.40;79.60
47618;DHT22;33336;36.728;-4.414;2023-05-07T14:12:01;32.50;77.40
47618;DHT22;33336;36.728;-4.414;2023-05-07T14:17:04;31.30;80.70
47618;DHT22;33336;36.728;-4.414;2023-05-07T14:22:09;31.60;79.30
47618;DHT22;33336;36.728;-4.414;2023-05-07T14:27:12;30.30;83.60
47618;DHT22;33336;36.728;-4.414;2023-05-07T14:32:15;31.40;83.80
47618;DHT22;33336;36.728;-4.414;2023-05-07T14:37:19;32.60;84.00
47618;DHT22;33336;36.728;-4.414;2023-05-07T14:42:22;32.20;85.50
47618;DHT22;33336;36.728;-4.414;2023-05-07T14:47:25;33.00;84.70
47618;DHT22;33336;36.728;-4.414;2023-05-07T14:52:30;32.80;79.30
47618;DHT22;33336;36.728;-4.414;2023-05-07T14:57:32;32.80;79.90
47618;DHT22;33336;36.728;-4.414;2023-05-07T15:02:36;32.80;81.30
47618;DHT22;33336;36.728;-4.414;2023-05-07T15:07:41;31.10;84.20
47618;DHT22;33336;36.728;-4.414;2023-05-07T15:12:44;32.20;82.80
47618;DHT22;33336;36.728;-4.414;2023-05-07T15:17:47;33.00;83.30
47618;DHT22;33336;36.728;-4.414;2023-05-07T15:22:52;33.60;82.70
47618;DHT22;33336;36.728;-4.414;2023-05-07T15:27:55;33.80;80.20
47618;DHT22;33336;36.728;-4.414;2023-05-07T15:32:58;34.00;80.20
47618;DHT22;33336;36.728;-4.414;2023-05-07T15:38:03;34.20;80.50
47618;DHT22;33336;36.728;-4.414;2023-05-07T15:43:07;33.70;80.70
47618;DHT22;33336;36.728;-4.414;2023-05-07T15:48:10;34.40;80.30
47618;DHT22;33336;36.728;-4.414;2023-05-07T15:53:15;34.10;79.90
47618;DHT22;33336;36.728;-4.414;2023-05-07T15:58:18;32.50;82.70
47618;DHT22;33336;36.728;-4.414;2023-05-07T16:03:22;33.60;81.00
47618;DHT22;33336;36.728;-4.414;2023-05-07T16:08:26;35.50;77.70
47618;DHT22;33336;36.728;-4.414;2023-05-07T16:13:31;36.70;75.70
47618;DHT22;33336;36.728;-4.414;2023-05-07T16:18:34;37.90;74.80
47618;DHT22;33336;36.728;-4.414;2023-05-07T16:23:39;38.60;73.10
47618;DHT22;33336;36.728;-4.414;2023-05-07T16:28:42;38.50;72.20
47618;DHT22;33336;36.728;-4.414;2023-05-07T16:33:44;37.60;68.30
47618;DHT22;33336;36.728;-4.414;2023-05-07T16:38:49;35.90;74.40
47618;DHT22;33336;36.728;-4.414;2023-05-07T16:43:52;35.60;73.10
47618;DHT22;33336;36.728;-4.414;2023-05-07T16:48:55;35.60;75.30
47618;DHT22;33336;36.728;-4.414;2023-05-07T16:54:01;35.30;75.80
47618;DHT22;33336;36.728;-4.414;2023-05-07T16:59:04;35.80;74.80
47618;DHT22;33336;36.728;-4.414;2023-05-07T17:04:07;34.80;75.10
47618;DHT22;33336;36.728;-4.414;2023-05-07T17:09:11;34.10;76.50
47618;DHT22;33336;36.728;-4.414;2023-05-07T17:14:14;34.00;75.40
47618;DHT22;33336;36.728;-4.414;2023-05-07T17:19:17;32.40;78.70
47618;DHT22;33336;36.728;-4.414;2023-05-07T17:24:22;33.40;78.20
47618;DHT22;33336;36.728;-4.414;2023-05-07T17:29:25;31.90;81.80
47618;DHT22;33336;36.728;-4.414;2023-05-07T17:34:28;32.30;81.00
47618;DHT22;33336;36.728;-4.414;2023-05-07T17:39:34;31.90;84.20
47618;DHT22;33336;36.728;-4.414;2023-05-07T17:44:37;31.80;86.50
47618;DHT22;33336;36.728;-4.414;2023-05-07T17:49:40;30.50;88.50
47618;DHT22;33336;36.728;-4.414;2023-05-07T17:54:46;31.00;89.10
47618;DHT22;33336;36.728;-4.414;2023-05-07T17:59:48;30.80;89.70
47618;DHT22;33336;36.728;-4.414;2023-05-07T18:04:52;29.90;91.20
47618;DHT22;33336;36.728;-4.414;2023-05-07T18:09:57;29.70;92.20
47618;DHT22;33336;36.728;-4.414;2023-05-07T18:15:00;29.50;92.90
47618;DHT22;33336;36.728;-4.414;2023-05-07T18:20:04;29.10;93.80
47618;DHT22;33336;36.728;-4.414;2023-05-07T18:25:11;29.30;93.90
47618;DHT22;33336;36.728;-4.414;2023-05-07T18:30:13;29.50;93.90
47618;DHT22;33336;36.728;-4.414;2023-05-07T18:35:17;28.20;95.30
47618;DHT22;33336;36.728;-4.414;2023-05-07T18:40:22;28.50;96.40
47618;DHT22;33336;36.728;-4.414;2023-05-07T18:45:25;28.70;96.10
47618;DHT22;33336;36.728;-4.414;2023-05-07T18:50:28;28.60;96.30
47618;DHT22;33336;36.728;-4.414;2023-05-07T18:55:37;29.00;96.10
47618;DHT22;33336;36.728;-4.414;2023-05-07T19:00:39;28.80;95.90
47618;DHT22;33336;36.728;-4.414;2023-05-07T19:05:45;28.20;96.50
47618;DHT22;33336;36.728;-4.414;2023-05-07T19:10:49;27.40;97.80
47618;DHT22;33336;36.728;-4.414;2023-05-07T19:15:54;27.30;98.10
47618;DHT22;33336;36.728;-4.414;2023-05-07T19:20:57;27.90;97.50
47618;DHT22;33336;36.728;-4.414;2023-05-07T19:26:02;27.80;96.90
47618;DHT22;33336;36.728;-4.414;2023-05-07T19:31:05;27.00;97.60
47618;DHT22;33336;36.728;-4.414;2023-05-07T19:36:08;26.30;98.10
47618;DHT22;33336;36.728;-4.414;2023-05-07T19:41:13;24.80;99.90
47618;DHT22;33336;36.728;-4.414;2023-05-07T19:46:16;24.50;99.90
47618;DHT22;33336;36.728;-4.414;2023-05-07T19:51:19;24.80;99.90
47618;DHT22;33336;36.728;-4.414;2023-05-07T19:56:29;24.00;99.90
47618;DHT22;33336;36.728;-4.414;2023-05-07T20:01:35;23.90;99.90
47618;DHT22;33336;36.728;-4.414;2023-05-07T20:06:41;23.90;99.90
47618;DHT22;33336;36.728;-4.414;2023-05-07T20:11:49;23.50;99.90
47618;DHT22;33336;36.728;-4.414;2023-05-07T20:16:55;23.30;99.90
47618;DHT22;33336;36.728;-4.414;2023-05-07T20:21:59;24.20;99.90
47618;DHT22;33336;36.728;-4.414;2023-05-07T20:27:07;24.50;99.90
47618;DHT22;33336;36.728;-4.414;2023-05-07T20:32:11;24.60;99.90
47618;DHT22;33336;36.728;-4.414;2023-05-07T20:37:15;24.20;99.90
47618;DHT22;33336;36.728;-4.414;2023-05-07T20:42:22;24.30;99.90
47618;DHT22;33336;36.728;-4.414;2023-05-07T20:47:31;24.80;99.90
47618;DHT22;33336;36.728;-4.414;2023-05-07T20:52:36;25.00;99.90
47618;DHT22;33336;36.728;-4.414;2023-05-07T20:57:42;25.10;99.90
47618;DHT22;33336;36.728;-4.414;2023-05-07T21:02:44;25.10;99.90
47618;DHT22;33336;36.728;-4.414;2023-05-07T21:07:47;24.60;99.90
47618;DHT22;33336;36.728;-4.414;2023-05-07T21:12:51;24.70;99.90
47618;DHT22;33336;36.728;-4.414;2023-05-07T21:18:05;24.60;99.90
47618;DHT22;33336;36.728;-4.414;2023-05-07T21:23:22;24.60;99.90
47618;DHT22;33336;36.728;-4.414;2023-05-07T21:28:27;24.30;99.90
47618;DHT22;33336;36.728;-4.414;2023-05-07T21:33:30;24.60;99.90
47618;DHT22;33336;36.728;-4.414;2023-05-07T21:38:33;24.60;99.90
47618;DHT22;33336;36.728;-4.414;2023-05-07T21:43:38;23.90;99.90
47618;DHT22;33336;36.728;-4.414;2023-05-07T21:49:06;24.00;99.90
47618;DHT22;33336;36.728;-4.414;2023-05-07T21:54:11;24.10;99.90
47618;DHT22;33336;36.728;-4.414;2023-05-07T21:59:16;23.10;99.90
47618;DHT22;33336;36.728;-4.414;2023-05-07T22:04:18;23.60;99.90
47618;DHT22;33336;36.728;-4.414;2023-05-07T22:09:22;24.00;99.90
47618;DHT22;33336;36.728;-4.414;2023-05-07T22:14:26;24.20;99.90
47618;DHT22;33336;36.728;-4.414;2023-05-07T22:19:30;24.30;99.90
47618;DHT22;33336;36.728;-4.414;2023-05-07T22:24:33;24.40;99.90
47618;DHT22;33336;36.728;-4.414;2023-05-07T22:29:38;24.10;99.90
47618;DHT22;33336;36.728;-4.414;2023-05-07T22:34:40;24.00;99.90
47618;DHT22;33336;36.728;-4.414;2023-05-07T22:39:44;24.10;99.90
47618;DHT22;33336;36.728;-4.414;2023-05-07T22:44:51;24.30;99.90
47618;DHT22;33336;36.728;-4.414;2023-05-07T22:49:54;24.00;99.90
47618;DHT22;33336;36.728;-4.414;2023-05-07T22:54:57;23.90;99.90
47618;DHT22;33336;36.728;-4.414;2023-05-07T23:00:02;24.20;99.90
47618;DHT22;33336;36.728;-4.414;2023-05-07T23:05:05;24.30;99.90
47618;DHT22;33336;36.728;-4.414;2023-05-07T23:10:08;24.30;99.90
47618;DHT22;33336;36.728;-4.414;2023-05-07T23:15:13;24.10;99.90
47618;DHT22;33336;36.728;-4.414;2023-05-07T23:20:16;24.00;99.90
47618;DHT22;33336;36.728;-4.414;2023-05-07T23:25:19;23.90;99.90
47618;DHT22;33336;36.728;-4.414;2023-05-07T23:30:24;23.90;99.90
47618;DHT22;33336;36.728;-4.414;2023-05-07T23:35:27;23.80;99.90
47618;DHT22;33336;36.728;-4.414;2023-05-07T23:40:31;23.20;99.90
47618;DHT22;33336;36.728;-4.414;2023-05-07T23:45:35;23.60;99.90
47618;DHT22;33336;36.728;-4.414;2023-05-07T23:50:38;23.70;99.90
47618;DHT22;33336;36.728;-4.414;2023-05-07T23:55:41;23.70;99.90
